St. Louis Express — WDD3825 — position and weather

sailwx.info

Track history (hours):
 
Tides and Currents Weather Stations Pressure Air Temp Water Temp Dewpoint Dewpoint Depression Visibility Wind Speed Wind Dir Waves Ship Positions

St. Louis Express

More information available from US FCC via Universal Licensing System.

Last reported at 2014-Sep-02 16:14 UTC. Time now 2014-Sep-02 21:18 UTC.
Position N 50°55' W 001°28'.

Type: Ship (hazmat cat D). MMSI: 367136680.

Date/timePositionNaut miles runAvg speedWind from/ knotsBaromVisibWave heightAir tempDewpointWater temp
2014-Sep-02 16:14N 50°55' W 001°28'0 0.0
2014-Sep-02 15:11N 50°55' W 001°28'0 0.0
2014-Sep-02 14:26N 50°55' W 001°28'0 0.0
2014-Sep-02 11:20N 50°55' W 001°28'0 0.1
2014-Sep-02 10:29N 50°55' W 001°28'6 6.1
2014-Sep-02 09:33N 50°51' W 001°21'10 9.9
2014-Sep-02 08:33N 50°45' W 001°08'1110.9
2014-Sep-02 07:33N 50°37' W 000°56'3 3.4
2014-Sep-02 06:33N 50°36' W 001°01'0 0.1
2014-Sep-02 05:33N 50°36' W 001°01'0 0.0
2014-Sep-02 04:33N 50°36' W 001°01'0 0.0
2014-Sep-02 03:33N 50°36' W 001°01'0 0.1
2014-Sep-02 02:33N 50°36' W 001°01'0 0.2
2014-Sep-02 01:33N 50°36' W 001°01'0 0.0
2014-Sep-02 00:33N 50°36' W 001°01'0 0.0
2014-Sep-01 23:33N 50°36' W 001°01'3 3.1
2014-Sep-01 22:33N 50°37' W 000°56'1615.6
2014-Sep-01 21:34N 50°34' W 000°32'2019.1
2014-Sep-01 20:32N 50°33' W 000°01'2019.9
2014-Sep-01 19:33N 50°37' E 000°29'1919.3
2014-Sep-01 18:33N 50°46' E 000°56'1818.2
2014-Sep-01 17:34N 50°56' E 001°20'1716.6
2014-Sep-01 16:34N 51°08' E 001°38'1716.9
2014-Sep-01 15:34N 51°22' E 001°52'1918.6
2014-Sep-01 14:34N 51°38' E 002°09'2019.8
2014-Sep-01 13:33N 51°54' E 002°28'2319.2
2014-Sep-01 12:22N 52°09' E 002°55'3619.8
2014-Sep-01 10:33N 52°38' E 003°30'2218.9
2014-Sep-01 09:24N 52°54' E 003°54'716.3
2014-Sep-01 09:00N 53°00' E 004°00'1120.1 300 / 21020.510.8 18.213.118.9
2014-Sep-01 08:27N 53°07' E 004°15'817.1
2014-Sep-01 08:00N 53°12' E 004°24'1414.0 320 / 81019.010.8 0.517.013.519.1
2014-Sep-01 07:00N 53°24' E 004°36'1125.6 320 / 81019.010.8 0.518.016.019.1
2014-Sep-01 06:33N 53°31' E 004°51'916.0
2014-Sep-01 06:00N 53°30' E 005°06'1328.6 320 / 81019.010.8 0.517.017.019.1
2014-Sep-01 05:33N 53°38' E 005°22'2020.0
2014-Sep-01 04:33N 53°44' E 005°54'6019.1
2014-Sep-01 01:26N 53°59' E 007°33'1315.0
2014-Sep-01 00:33N 53°52' E 007°52'1312.8
2014-Aug-31 23:33N 53°46' E 008°11'1514.7
2014-Aug-31 22:34N 53°37' E 008°30'2 1.8
2014-Aug-31 21:31N 53°35' E 008°32'0 0.0
2014-Aug-31 20:31N 53°35' E 008°32'0 0.0
2014-Aug-31 19:31N 53°35' E 008°32'0 0.0
2014-Aug-31 18:31N 53°35' E 008°32'0 0.0
2014-Aug-31 17:31N 53°35' E 008°32'0 0.0
2014-Aug-31 16:31N 53°35' E 008°32'0 0.0
2014-Aug-31 15:22N 53°35' E 008°32'0 0.0
2014-Aug-31 14:31N 53°35' E 008°32'0 0.0
2014-Aug-31 13:28N 53°35' E 008°32'0 0.0
2014-Aug-31 12:31N 53°35' E 008°32'0 0.0
2014-Aug-31 11:31N 53°35' E 008°32'0 0.0
2014-Aug-31 10:28N 53°35' E 008°32'0 0.0
2014-Aug-31 09:31N 53°35' E 008°32'0 0.0
2014-Aug-31 08:31N 53°35' E 008°32'0 0.0
2014-Aug-31 07:25N 53°35' E 008°32'0 0.0
2014-Aug-31 06:32N 53°35' E 008°32'0 0.0
2014-Aug-31 05:32N 53°35' E 008°32'0 0.0
2014-Aug-31 04:31N 53°35' E 008°32'0 0.0
2014-Aug-31 03:31N 53°35' E 008°32'0 0.0
2014-Aug-31 02:26N 53°35' E 008°32'0 0.0
2014-Aug-31 01:32N 53°35' E 008°32'0 0.0
2014-Aug-31 00:32N 53°35' E 008°32'0 0.0
2014-Aug-30 23:25N 53°35' E 008°32'0 0.0
2014-Aug-30 22:32N 53°35' E 008°32'0 0.0
2014-Aug-30 21:31N 53°35' E 008°32'0 0.0
2014-Aug-30 20:28N 53°35' E 008°32'0 0.0
2014-Aug-30 19:25N 53°35' E 008°32'0 0.0
2014-Aug-30 18:32N 53°35' E 008°32'0 0.0
2014-Aug-30 17:32N 53°35' E 008°32'0 0.0
2014-Aug-30 16:28N 53°35' E 008°32'0 0.0
2014-Aug-30 15:28N 53°35' E 008°32'0 0.0
2014-Aug-30 14:31N 53°35' E 008°32'0 0.0
2014-Aug-30 13:32N 53°35' E 008°32'0 0.0
2014-Aug-30 12:32N 53°35' E 008°32'0 0.0
2014-Aug-30 11:32N 53°35' E 008°32'0 0.0
2014-Aug-30 10:32N 53°35' E 008°32'0 0.0
2014-Aug-30 09:26N 53°35' E 008°32'0 0.0
2014-Aug-30 08:29N 53°35' E 008°32'2 2.1
2014-Aug-30 07:33N 53°37' E 008°29'1413.8
2014-Aug-30 06:34N 53°45' E 008°12'1514.5
2014-Aug-30 05:33N 53°52' E 007°50'3 2.6
2014-Aug-30 04:28N 53°55' E 007°47'0 0.1
2014-Aug-30 03:31N 53°55' E 007°47'0 0.1
2014-Aug-30 02:31N 53°55' E 007°47'0 0.0
2014-Aug-30 01:03N 53°55' E 007°47'0 0.0
2014-Aug-29 23:32N 53°55' E 007°47'0 0.0
2014-Aug-29 22:31N 53°54' E 007°47'1 0.8
2014-Aug-29 21:25N 53°54' E 007°47'3317.5
2014-Aug-29 19:33N 53°48' E 006°52'2020.3
2014-Aug-29 18:34N 53°44' E 006°19'2120.7
2014-Aug-29 17:34N 53°38' E 005°46'2020.2
2014-Aug-29 16:34N 53°32' E 005°13'2020.3
2014-Aug-29 15:33N 53°22' E 004°43'2121.0
2014-Aug-29 14:33N 53°04' E 004°25'2120.7
2014-Aug-29 13:34N 52°46' E 004°08'2020.3
2014-Aug-29 12:33N 52°31' E 003°46'2020.2
2014-Aug-29 11:33N 52°16' E 003°23'3316.7
2014-Aug-29 09:34N 51°44' E 003°12'1414.0
2014-Aug-29 08:33N 51°30' E 003°05'10 9.8
2014-Aug-29 07:33N 51°24' E 003°17'1413.6
2014-Aug-29 06:33N 51°26' E 003°39'1211.7
2014-Aug-29 05:34N 51°23' E 003°57'8 8.5
2014-Aug-29 04:33N 51°24' E 004°10'5 5.0
2014-Aug-29 03:33N 51°20' E 004°17'0 0.0
2014-Aug-29 02:33N 51°20' E 004°17'0 0.0
2014-Aug-29 01:33N 51°20' E 004°17'0 0.0
2014-Aug-29 00:34N 51°20' E 004°17'0 0.0
2014-Aug-28 23:33N 51°20' E 004°17'0 0.0
2014-Aug-28 22:33N 51°20' E 004°17'0 0.0
2014-Aug-28 21:34N 51°20' E 004°17'0 0.0
2014-Aug-28 20:33N 51°20' E 004°17'0 0.0
2014-Aug-28 19:33N 51°20' E 004°17'0 0.0
2014-Aug-28 18:34N 51°20' E 004°17'0 0.0
2014-Aug-28 17:34N 51°20' E 004°17'0 0.0
2014-Aug-28 16:33N 51°20' E 004°17'0 0.0
2014-Aug-28 15:33N 51°20' E 004°17'0 0.0
2014-Aug-28 14:34N 51°20' E 004°17'0 0.0
2014-Aug-28 13:33N 51°20' E 004°17'0 0.0
2014-Aug-28 12:33N 51°20' E 004°17'0 0.0
2014-Aug-28 11:33N 51°20' E 004°17'0 0.0
2014-Aug-28 10:34N 51°20' E 004°17'0 0.0
2014-Aug-28 09:34N 51°20' E 004°17'0 0.0
2014-Aug-28 08:33N 51°20' E 004°17'0 0.0
2014-Aug-28 07:34N 51°20' E 004°17'0 0.0
2014-Aug-28 06:33N 51°20' E 004°17'0 0.0
2014-Aug-28 05:33N 51°20' E 004°17'0 0.0
2014-Aug-28 04:33N 51°20' E 004°17'0 0.0
2014-Aug-28 03:33N 51°20' E 004°17'0 0.0
2014-Aug-28 02:33N 51°20' E 004°17'0 0.0
2014-Aug-28 01:33N 51°20' E 004°17'0 0.0
2014-Aug-28 00:33N 51°20' E 004°17'0 0.0
2014-Aug-27 23:33N 51°20' E 004°17'0 0.0
2014-Aug-27 22:33N 51°20' E 004°17'0 0.0
2014-Aug-27 21:33N 51°20' E 004°17'0 0.0
2014-Aug-27 20:33N 51°20' E 004°17'0 0.0
2014-Aug-27 19:33N 51°20' E 004°17'0 0.0
2014-Aug-27 18:33N 51°20' E 004°17'0 0.0
2014-Aug-27 17:33N 51°20' E 004°17'0 0.0
2014-Aug-27 16:34N 51°20' E 004°17'0 0.0
2014-Aug-27 15:33N 51°20' E 004°17'2 2.3
2014-Aug-27 14:33N 51°22' E 004°14'1010.2
2014-Aug-27 13:33N 51°26' E 003°59'1110.5
2014-Aug-27 12:33N 51°24' E 003°43'1313.1
2014-Aug-27 11:33N 51°24' E 003°22'1716.8
2014-Aug-27 10:33N 51°22' E 002°55'1111.1
2014-Aug-27 09:33N 51°22' E 002°37'9 8.3
2014-Aug-27 08:32N 51°20' E 002°24'2222.1
2014-Aug-27 07:33N 51°09' E 001°54'5 8.5
2014-Aug-27 07:00N 51°12' E 002°00'818.9 130 / 101015.0 5.4 1.017.811.819.3
2014-Aug-27 06:33N 51°08' E 001°49'1119.8
2014-Aug-27 06:00N 51°00' E 001°36'512.7 070 / 111014.0 5.4 1.015.811.019.5
2014-Aug-27 05:33N 50°55' E 001°31'3417.0
2014-Aug-27 03:33N 50°30' E 000°55'2217.5
2014-Aug-27 02:17N 50°24' E 000°22'33019.1
2014-Aug-26 09:00N 49°06' W 007°54'3517.7 270 / 181004.0 5.4 2.019.516.219.1
2014-Aug-26 07:00N 49°06' W 008°48'6310.5 270 / 201001.5 5.4 2.017.916.219.3
2014-Aug-26 01:00N 49°00' W 010°24'24935.6 270 / 251002.7 5.4 2.018.016.318.6
2014-Aug-25 18:00N 45°48' W 014°18'19639.1 270 / 151003.010.8 2.021.016.119.0
2014-Aug-25 13:00N 48°42' W 016°30'7615.3 290 / 231003.910.8 2.023.016.518.9
2014-Aug-25 08:00N 48°30' W 018°24'3216.2 290 / 151002.510.8 2.018.516.019.1
2014-Aug-25 06:00N 48°36' W 017°36'3818.9 250 / 151001.5 5.4 2.018.016.319.5
2014-Aug-25 04:00N 48°24' W 018°30'4019.9 260 / 181001.510.8 2.018.016.319.0
2014-Aug-25 02:00N 48°24' W 019°30'1717.0 250 / 251002.5 5.4 2.018.016.319.3
2014-Aug-25 01:00N 48°18' W 019°54'2120.9 250 / 241003.0 5.4 2.018.016.319.6
2014-Aug-25 00:00N 48°12' W 020°24'9819.6 260 / 221003.8 5.4 2.018.016.319.5
2014-Aug-24 19:00N 47°54' W 022°48'13719.5 270 / 201004.0 5.4 2.520.016.719.0
2014-Aug-24 12:00N 47°24' W 026°06'9719.4 280 / 331001.0 2.2 2.020.018.419.6
2014-Aug-24 07:00N 47°00' W 028°24'3517.5 210 / 14999.5 5.4 2.020.920.321.1
2014-Aug-24 05:00N 46°48' W 029°12'3919.5 190 / 131000.5 2.2 2.020.018.420.0
2014-Aug-24 03:00N 46°36' W 030°06'2121.5 150 / 201002.5 2.2 2.019.019.021.3
2014-Aug-24 02:00N 46°30' W 030°36'11819.6 150 / 251003.0 2.2 2.019.019.021.4
2014-Aug-23 20:00N 45°54' W 033°18'3215.8 190 / 121008.0 2.2 2.019.017.420.0
2014-Aug-23 18:00N 45°42' W 034°00'   190 / 131008.010.8 2.020.016.722.0
Track history (hours):
 
Tides and Currents Weather Stations Pressure Air Temp Water Temp Dewpoint Dewpoint Depression Visibility Wind Speed Wind Dir Waves Ship Positions

St. Louis Express

More information available from US FCC via Universal Licensing System.

Last reported at 2014-Sep-02 16:14 UTC. Time now 2014-Sep-02 21:18 UTC.
Position N 50°55' W 001°28'.

Type: Ship (hazmat cat D). MMSI: 367136680.

Date/timePositionNaut miles runAvg speedWind from/ knotsBaromVisibWave heightAir tempDewpointWater temp
2014-Sep-02 16:14N 50°55' W 001°28'0 0.0
2014-Sep-02 15:11N 50°55' W 001°28'0 0.0
2014-Sep-02 14:26N 50°55' W 001°28'0 0.0
2014-Sep-02 11:20N 50°55' W 001°28'0 0.1
2014-Sep-02 10:29N 50°55' W 001°28'6 6.1
2014-Sep-02 09:33N 50°51' W 001°21'10 9.9
2014-Sep-02 08:33N 50°45' W 001°08'1110.9
2014-Sep-02 07:33N 50°37' W 000°56'3 3.4
2014-Sep-02 06:33N 50°36' W 001°01'0 0.1
2014-Sep-02 05:33N 50°36' W 001°01'0 0.0
2014-Sep-02 04:33N 50°36' W 001°01'0 0.0
2014-Sep-02 03:33N 50°36' W 001°01'0 0.1
2014-Sep-02 02:33N 50°36' W 001°01'0 0.2
2014-Sep-02 01:33N 50°36' W 001°01'0 0.0
2014-Sep-02 00:33N 50°36' W 001°01'0 0.0
2014-Sep-01 23:33N 50°36' W 001°01'3 3.1
2014-Sep-01 22:33N 50°37' W 000°56'1615.6
2014-Sep-01 21:34N 50°34' W 000°32'2019.1
2014-Sep-01 20:32N 50°33' W 000°01'2019.9
2014-Sep-01 19:33N 50°37' E 000°29'1919.3
2014-Sep-01 18:33N 50°46' E 000°56'1818.2
2014-Sep-01 17:34N 50°56' E 001°20'1716.6
2014-Sep-01 16:34N 51°08' E 001°38'1716.9
2014-Sep-01 15:34N 51°22' E 001°52'1918.6
2014-Sep-01 14:34N 51°38' E 002°09'2019.8
2014-Sep-01 13:33N 51°54' E 002°28'2319.2
2014-Sep-01 12:22N 52°09' E 002°55'3619.8
2014-Sep-01 10:33N 52°38' E 003°30'2218.9
2014-Sep-01 09:24N 52°54' E 003°54'716.3
2014-Sep-01 09:00N 53°00' E 004°00'1120.1 300 / 21020.510.8 18.213.118.9
2014-Sep-01 08:27N 53°07' E 004°15'817.1
2014-Sep-01 08:00N 53°12' E 004°24'1414.0 320 / 81019.010.8 0.517.013.519.1
2014-Sep-01 07:00N 53°24' E 004°36'1125.6 320 / 81019.010.8 0.518.016.019.1
2014-Sep-01 06:33N 53°31' E 004°51'916.0
2014-Sep-01 06:00N 53°30' E 005°06'1328.6 320 / 81019.010.8 0.517.017.019.1
2014-Sep-01 05:33N 53°38' E 005°22'2020.0
2014-Sep-01 04:33N 53°44' E 005°54'6019.1
2014-Sep-01 01:26N 53°59' E 007°33'1315.0
2014-Sep-01 00:33N 53°52' E 007°52'1312.8
2014-Aug-31 23:33N 53°46' E 008°11'1514.7
2014-Aug-31 22:34N 53°37' E 008°30'2 1.8
2014-Aug-31 21:31N 53°35' E 008°32'0 0.0
2014-Aug-31 20:31N 53°35' E 008°32'0 0.0
2014-Aug-31 19:31N 53°35' E 008°32'0 0.0
2014-Aug-31 18:31N 53°35' E 008°32'0 0.0
2014-Aug-31 17:31N 53°35' E 008°32'0 0.0
2014-Aug-31 16:31N 53°35' E 008°32'0 0.0
2014-Aug-31 15:22N 53°35' E 008°32'0 0.0
2014-Aug-31 14:31N 53°35' E 008°32'0 0.0
2014-Aug-31 13:28N 53°35' E 008°32'0 0.0
2014-Aug-31 12:31N 53°35' E 008°32'0 0.0
2014-Aug-31 11:31N 53°35' E 008°32'0 0.0
2014-Aug-31 10:28N 53°35' E 008°32'0 0.0
2014-Aug-31 09:31N 53°35' E 008°32'0 0.0
2014-Aug-31 08:31N 53°35' E 008°32'0 0.0
2014-Aug-31 07:25N 53°35' E 008°32'0 0.0
2014-Aug-31 06:32N 53°35' E 008°32'0 0.0
2014-Aug-31 05:32N 53°35' E 008°32'0 0.0
2014-Aug-31 04:31N 53°35' E 008°32'0 0.0
2014-Aug-31 03:31N 53°35' E 008°32'0 0.0
2014-Aug-31 02:26N 53°35' E 008°32'0 0.0
2014-Aug-31 01:32N 53°35' E 008°32'0 0.0
2014-Aug-31 00:32N 53°35' E 008°32'0 0.0
2014-Aug-30 23:25N 53°35' E 008°32'0 0.0
2014-Aug-30 22:32N 53°35' E 008°32'0 0.0
2014-Aug-30 21:31N 53°35' E 008°32'0 0.0
2014-Aug-30 20:28N 53°35' E 008°32'0 0.0
2014-Aug-30 19:25N 53°35' E 008°32'0 0.0
2014-Aug-30 18:32N 53°35' E 008°32'0 0.0
2014-Aug-30 17:32N 53°35' E 008°32'0 0.0
2014-Aug-30 16:28N 53°35' E 008°32'0 0.0
2014-Aug-30 15:28N 53°35' E 008°32'0 0.0
2014-Aug-30 14:31N 53°35' E 008°32'0 0.0
2014-Aug-30 13:32N 53°35' E 008°32'0 0.0
2014-Aug-30 12:32N 53°35' E 008°32'0 0.0
2014-Aug-30 11:32N 53°35' E 008°32'0 0.0
2014-Aug-30 10:32N 53°35' E 008°32'0 0.0
2014-Aug-30 09:26N 53°35' E 008°32'0 0.0
2014-Aug-30 08:29N 53°35' E 008°32'2 2.1
2014-Aug-30 07:33N 53°37' E 008°29'1413.8
2014-Aug-30 06:34N 53°45' E 008°12'1514.5
2014-Aug-30 05:33N 53°52' E 007°50'3 2.6
2014-Aug-30 04:28N 53°55' E 007°47'0 0.1
2014-Aug-30 03:31N 53°55' E 007°47'0 0.1
2014-Aug-30 02:31N 53°55' E 007°47'0 0.0
2014-Aug-30 01:03N 53°55' E 007°47'0 0.0
2014-Aug-29 23:32N 53°55' E 007°47'0 0.0
2014-Aug-29 22:31N 53°54' E 007°47'1 0.8
2014-Aug-29 21:25N 53°54' E 007°47'3317.5
2014-Aug-29 19:33N 53°48' E 006°52'2020.3
2014-Aug-29 18:34N 53°44' E 006°19'2120.7
2014-Aug-29 17:34N 53°38' E 005°46'2020.2
2014-Aug-29 16:34N 53°32' E 005°13'2020.3
2014-Aug-29 15:33N 53°22' E 004°43'2121.0
2014-Aug-29 14:33N 53°04' E 004°25'2120.7
2014-Aug-29 13:34N 52°46' E 004°08'2020.3
2014-Aug-29 12:33N 52°31' E 003°46'2020.2
2014-Aug-29 11:33N 52°16' E 003°23'3316.7
2014-Aug-29 09:34N 51°44' E 003°12'1414.0
2014-Aug-29 08:33N 51°30' E 003°05'10 9.8
2014-Aug-29 07:33N 51°24' E 003°17'1413.6
2014-Aug-29 06:33N 51°26' E 003°39'1211.7
2014-Aug-29 05:34N 51°23' E 003°57'8 8.5
2014-Aug-29 04:33N 51°24' E 004°10'5 5.0
2014-Aug-29 03:33N 51°20' E 004°17'0 0.0
2014-Aug-29 02:33N 51°20' E 004°17'0 0.0
2014-Aug-29 01:33N 51°20' E 004°17'0 0.0
2014-Aug-29 00:34N 51°20' E 004°17'0 0.0
2014-Aug-28 23:33N 51°20' E 004°17'0 0.0
2014-Aug-28 22:33N 51°20' E 004°17'0 0.0
2014-Aug-28 21:34N 51°20' E 004°17'0 0.0
2014-Aug-28 20:33N 51°20' E 004°17'0 0.0
2014-Aug-28 19:33N 51°20' E 004°17'0 0.0
2014-Aug-28 18:34N 51°20' E 004°17'0 0.0
2014-Aug-28 17:34N 51°20' E 004°17'0 0.0
2014-Aug-28 16:33N 51°20' E 004°17'0 0.0
2014-Aug-28 15:33N 51°20' E 004°17'0 0.0
2014-Aug-28 14:34N 51°20' E 004°17'0 0.0
2014-Aug-28 13:33N 51°20' E 004°17'0 0.0
2014-Aug-28 12:33N 51°20' E 004°17'0 0.0
2014-Aug-28 11:33N 51°20' E 004°17'0 0.0
2014-Aug-28 10:34N 51°20' E 004°17'0 0.0
2014-Aug-28 09:34N 51°20' E 004°17'0 0.0
2014-Aug-28 08:33N 51°20' E 004°17'0 0.0
2014-Aug-28 07:34N 51°20' E 004°17'0 0.0
2014-Aug-28 06:33N 51°20' E 004°17'0 0.0
2014-Aug-28 05:33N 51°20' E 004°17'0 0.0
2014-Aug-28 04:33N 51°20' E 004°17'0 0.0
2014-Aug-28 03:33N 51°20' E 004°17'0 0.0
2014-Aug-28 02:33N 51°20' E 004°17'0 0.0
2014-Aug-28 01:33N 51°20' E 004°17'0 0.0
2014-Aug-28 00:33N 51°20' E 004°17'0 0.0
2014-Aug-27 23:33N 51°20' E 004°17'0 0.0
2014-Aug-27 22:33N 51°20' E 004°17'0 0.0
2014-Aug-27 21:33N 51°20' E 004°17'0 0.0
2014-Aug-27 20:33N 51°20' E 004°17'0 0.0
2014-Aug-27 19:33N 51°20' E 004°17'0 0.0
2014-Aug-27 18:33N 51°20' E 004°17'0 0.0
2014-Aug-27 17:33N 51°20' E 004°17'0 0.0
2014-Aug-27 16:34N 51°20' E 004°17'0 0.0
2014-Aug-27 15:33N 51°20' E 004°17'2 2.3
2014-Aug-27 14:33N 51°22' E 004°14'1010.2
2014-Aug-27 13:33N 51°26' E 003°59'1110.5
2014-Aug-27 12:33N 51°24' E 003°43'1313.1
2014-Aug-27 11:33N 51°24' E 003°22'1716.8
2014-Aug-27 10:33N 51°22' E 002°55'1111.1
2014-Aug-27 09:33N 51°22' E 002°37'9 8.3
2014-Aug-27 08:32N 51°20' E 002°24'2222.1
2014-Aug-27 07:33N 51°09' E 001°54'5 8.5
2014-Aug-27 07:00N 51°12' E 002°00'818.9 130 / 101015.0 5.4 1.017.811.819.3
2014-Aug-27 06:33N 51°08' E 001°49'1119.8
2014-Aug-27 06:00N 51°00' E 001°36'512.7 070 / 111014.0 5.4 1.015.811.019.5
2014-Aug-27 05:33N 50°55' E 001°31'3417.0
2014-Aug-27 03:33N 50°30' E 000°55'2217.5
2014-Aug-27 02:17N 50°24' E 000°22'33019.1
2014-Aug-26 09:00N 49°06' W 007°54'3517.7 270 / 181004.0 5.4 2.019.516.219.1
2014-Aug-26 07:00N 49°06' W 008°48'6310.5 270 / 201001.5 5.4 2.017.916.219.3
2014-Aug-26 01:00N 49°00' W 010°24'24935.6 270 / 251002.7 5.4 2.018.016.318.6
2014-Aug-25 18:00N 45°48' W 014°18'19639.1 270 / 151003.010.8 2.021.016.119.0
2014-Aug-25 13:00N 48°42' W 016°30'7615.3 290 / 231003.910.8 2.023.016.518.9
2014-Aug-25 08:00N 48°30' W 018°24'3216.2 290 / 151002.510.8 2.018.516.019.1
2014-Aug-25 06:00N 48°36' W 017°36'3818.9 250 / 151001.5 5.4 2.018.016.319.5
2014-Aug-25 04:00N 48°24' W 018°30'4019.9 260 / 181001.510.8 2.018.016.319.0
2014-Aug-25 02:00N 48°24' W 019°30'1717.0 250 / 251002.5 5.4 2.018.016.319.3
2014-Aug-25 01:00N 48°18' W 019°54'2120.9 250 / 241003.0 5.4 2.018.016.319.6
2014-Aug-25 00:00N 48°12' W 020°24'9819.6 260 / 221003.8 5.4 2.018.016.319.5
2014-Aug-24 19:00N 47°54' W 022°48'13719.5 270 / 201004.0 5.4 2.520.016.719.0
2014-Aug-24 12:00N 47°24' W 026°06'9719.4 280 / 331001.0 2.2 2.020.018.419.6
2014-Aug-24 07:00N 47°00' W 028°24'3517.5 210 / 14999.5 5.4 2.020.920.321.1
2014-Aug-24 05:00N 46°48' W 029°12'3919.5 190 / 131000.5 2.2 2.020.018.420.0
2014-Aug-24 03:00N 46°36' W 030°06'2121.5 150 / 201002.5 2.2 2.019.019.021.3
2014-Aug-24 02:00N 46°30' W 030°36'11819.6 150 / 251003.0 2.2 2.019.019.021.4
2014-Aug-23 20:00N 45°54' W 033°18'3215.8 190 / 121008.0 2.2 2.019.017.420.0
2014-Aug-23 18:00N 45°42' W 034°00'   190 / 131008.010.8 2.020.016.722.0

Dump ship's entire track history